Time;durP1;ratioP1;P1;durP2;ratioP2;P2;SDS_P1;SDS_P2;PMS_P1;PMS_P2;Temp;Humidity;BMP_temperature;BMP_pressure;BME280_temperature;BME280_humidity;BME280_pressure;Samples;Min_cycle;Max_cycle;Signal;HPM_P1;HPM_P2
2021/04/22 05:01:16;;;;;;;14.63;12.13;;;;;;;7.13;78.68;97829.48;1847786;76;23264;-64
2021/04/22 05:03:45;;;;;;;10.55;9.40;;;;;;;7.13;78.52;97834.81;1818136;79;21484;-64
2021/04/22 05:06:13;;;;;;;10.88;8.23;;;;;;;7.23;78.30;97834.78;1818036;78;21184;-63
2021/04/22 05:08:42;;;;;;;11.55;8.83;;;;;;;7.32;78.14;97827.81;1818007;78;20923;-63
2021/04/22 05:11:11;;;;;;;11.63;8.85;;;;;;;7.45;78.01;97832.55;1818020;79;20979;-64
2021/04/22 05:13:40;;;;;;;12.80;9.10;;;;;;;7.57;77.77;97832.49;1818018;79;21117;-63
2021/04/22 05:16:09;;;;;;;12.55;9.75;;;;;;;7.68;77.37;97831.89;1818065;79;20967;-62
2021/04/22 05:18:39;;;;;;;12.30;9.15;;;;;;;7.78;77.12;97841.70;1818008;78;20959;-66
2021/04/22 05:21:08;;;;;;;11.28;8.90;;;;;;;7.88;76.75;97831.78;1817950;78;21045;-66
2021/04/22 05:23:36;;;;;;;9.88;8.05;;;;;;;7.98;76.60;97829.59;1818004;78;20931;-65
2021/04/22 05:26:05;;;;;;;11.08;8.10;;;;;;;8.05;76.13;97832.75;1817981;78;20926;-65
2021/04/22 05:28:34;;;;;;;9.53;8.30;;;;;;;8.13;75.99;97820.94;1819320;79;20931;-63
2021/04/22 05:31:02;;;;;;;11.15;8.20;;;;;;;8.21;75.56;97825.69;1818035;79;21391;-63
2021/04/22 05:33:31;;;;;;;12.63;10.13;;;;;;;8.30;75.38;97831.25;1818025;79;20970;-64
2021/04/22 05:36:00;;;;;;;15.53;9.48;;;;;;;8.40;75.02;97825.03;1817740;79;20970;-63
2021/04/22 05:38:29;;;;;;;11.53;8.80;;;;;;;8.49;74.84;97823.34;1818021;79;20970;-64
2021/04/22 05:40:57;;;;;;;14.47;8.95;;;;;;;8.58;74.52;97818.99;1818045;79;21144;-64
2021/04/22 05:43:26;;;;;;;8.88;7.95;;;;;;;8.65;74.21;97823.46;1818020;79;21458;-65
2021/04/22 05:45:55;;;;;;;9.53;7.72;;;;;;;8.72;73.84;97826.06;1817952;79;20923;-64
2021/04/22 05:48:23;;;;;;;10.28;8.18;;;;;;;8.81;73.57;97817.69;1817986;79;20899;-66
2021/04/22 05:50:51;;;;;;;11.70;8.60;;;;;;;8.90;73.28;97821.90;1817978;79;20935;-64
2021/04/22 05:53:21;;;;;;;10.80;8.68;;;;;;;8.99;73.10;97825.54;1818015;78;20959;-65
2021/04/22 05:55:49;;;;;;;9.75;8.00;;;;;;;9.12;72.75;97822.70;1818001;79;21372;-64
2021/04/22 05:58:18;;;;;;;10.90;8.78;;;;;;;9.24;72.40;97823.91;1817927;79;21041;-63
2021/04/22 06:00:46;;;;;;;11.85;9.03;;;;;;;9.36;72.23;97816.81;1810151;78;20951;-66
2021/04/22 06:03:15;;;;;;;8.53;7.50;;;;;;;9.45;71.60;97817.23;1759286;79;20914;-67
2021/04/22 06:05:44;;;;;;;10.98;7.72;;;;;;;9.56;71.46;97814.67;1756350;81;21045;-66
2021/04/22 06:08:12;;;;;;;9.48;7.47;;;;;;;9.68;71.03;97819.59;1756343;81;21202;-65
2021/04/22 06:10:41;;;;;;;12.45;8.65;;;;;;;9.78;70.19;97821.34;1756153;81;20978;-66
2021/04/22 06:13:12;;;;;;;9.10;7.90;;;;;;;9.86;70.46;97819.37;1755823;81;20978;-65
2021/04/22 06:15:40;;;;;;;13.05;7.78;;;;;;;9.93;69.97;97833.98;1755790;81;21005;-64
2021/04/22 06:18:09;;;;;;;9.20;7.30;;;;;;;10.00;69.71;97832.27;1755831;81;21041;-67
2021/04/22 06:20:37;;;;;;;9.80;7.47;;;;;;;10.08;69.86;97834.30;1755735;81;21444;-65
2021/04/22 06:23:07;;;;;;;8.78;6.70;;;;;;;10.20;69.55;97834.66;1752369;81;20911;-64
2021/04/22 06:25:35;;;;;;;10.40;7.08;;;;;;;10.32;69.08;97822.20;1755769;81;20879;-67
2021/04/22 06:28:26;;;;;;;8.35;6.42;;;;;;;10.42;68.87;97820.13;1755775;81;20934;-67
2021/04/22 06:30:54;;;;;;;9.58;6.83;;;;;;;10.53;68.53;97822.88;1771344;81;20928;-64
2021/04/22 06:33:22;;;;;;;8.60;6.65;;;;;;;10.68;67.85;97829.33;1729743;82;21407;-66
2021/04/22 06:35:50;;;;;;;7.90;6.90;;;;;;;10.80;66.99;97816.27;1721990;83;21115;-65
2021/04/22 06:38:26;;;;;;;7.20;6.50;;;;;;;10.91;66.54;97819.00;1722749;83;21020;-66
2021/04/22 06:41:03;;;;;;;8.03;6.45;;;;;;;11.03;66.17;97812.35;1701761;83;21018;-65
2021/04/22 06:43:33;;;;;;;7.33;6.55;;;;;;;11.09;65.55;97820.56;1711487;83;21083;-66
2021/04/22 06:46:01;;;;;;;7.22;5.90;;;;;;;11.16;65.65;97817.74;1721729;83;21417;-66
2021/04/22 06:48:30;;;;;;;6.83;5.78;;;;;;;11.25;65.51;97813.80;1721755;83;21182;-65
2021/04/22 06:51:00;;;;;;;6.97;6.28;;;;;;;11.32;64.54;97808.84;1723810;83;21051;-66
2021/04/22 06:53:35;;;;;;;6.25;5.65;;;;;;;11.34;64.54;97807.98;1721664;83;21210;-65
2021/04/22 06:56:06;;;;;;;6.85;5.90;;;;;;;11.34;63.94;97808.79;1721323;83;21190;-65
2021/04/22 06:58:34;;;;;;;7.25;5.87;;;;;;;11.40;64.36;97813.52;1721296;83;21445;-66
2021/04/22 07:01:03;;;;;;;7.05;6.35;;;;;;;11.52;64.00;97811.09;1721678;83;21084;-65
2021/04/22 07:03:32;;;;;;;7.70;6.30;;;;;;;11.62;63.96;97814.37;1721660;83;21209;-67
2021/04/22 07:06:05;;;;;;;6.97;6.22;;;;;;;11.73;64.06;97813.63;1722633;83;21460;-66
2021/04/22 07:11:16;;;;;;;7.08;5.85;;;;;;;11.98;63.15;97810.39;1765209;81;21371;-67
2021/04/22 07:13:47;;;;;;;7.45;6.25;;;;;;;12.09;62.77;97802.34;1765103;81;21499;-68
2021/04/22 07:16:17;;;;;;;10.28;8.25;;;;;;;12.21;62.77;97797.77;1765196;81;21176;-65
2021/04/22 07:18:46;;;;;;;9.88;7.53;;;;;;;12.33;62.31;97796.13;1765096;81;20952;-68
2021/04/22 07:21:15;;;;;;;10.03;7.67;;;;;;;12.44;61.63;97801.23;1765118;81;21086;-68
2021/04/22 07:23:44;;;;;;;10.93;8.15;;;;;;;12.51;61.45;97806.97;1765073;81;21436;-65
2021/04/22 07:26:14;;;;;;;7.92;6.87;;;;;;;12.57;61.57;97807.10;1765082;81;21513;-67
2021/04/22 07:28:43;;;;;;;8.75;6.80;;;;;;;12.70;61.14;97814.28;1765154;81;21470;-66
2021/04/22 07:31:15;;;;;;;7.97;6.70;;;;;;;12.81;60.26;97806.22;1764373;79;20956;-68
2021/04/22 07:37:17;;;;;;;8.90;7.42;;;;;;;12.87;59.76;97800.39;1764487;81;21198;-69
2021/04/22 07:40:24;;;;;;;6.70;6.10;;;;;;;12.83;59.55;97815.56;1763998;81;21558;-66
2021/04/22 07:42:57;;;;;;;7.58;6.42;;;;;;;12.81;58.09;97814.28;1765831;81;21367;-67
2021/04/22 07:46:01;;;;;;;8.73;7.17;;;;;;;12.83;58.20;97822.83;1736700;81;20943;-67
2021/04/22 07:49:00;;;;;;;7.20;6.50;;;;;;;12.89;58.57;97810.83;1765629;81;21119;-67
2021/04/22 07:51:29;;;;;;;7.30;5.97;;;;;;;13.02;57.75;97812.07;1765237;81;21538;-65
2021/04/22 07:53:58;;;;;;;7.50;6.37;;;;;;;13.16;58.00;97804.50;1765028;81;21027;-65
2021/04/22 07:56:27;;;;;;;6.75;6.15;;;;;;;13.32;58.36;97811.03;1765159;81;21546;-67
2021/04/22 07:58:58;;;;;;;7.17;6.47;;;;;;;13.49;56.25;97813.23;1764510;81;21628;-66
2021/04/22 08:01:27;;;;;;;7.40;5.65;;;;;;;13.59;55.48;97802.16;1764950;81;21067;-65
2021/04/22 08:03:56;;;;;;;6.58;5.87;;;;;;;13.70;56.60;97800.78;1764472;80;21208;-67
2021/04/22 08:06:25;;;;;;;7.40;6.67;;;;;;;13.89;56.16;97808.55;1765229;79;21196;-66
2021/04/22 08:08:55;;;;;;;6.30;5.67;;;;;;;14.09;55.79;97805.77;1746398;81;20934;-67
2021/04/22 08:11:23;;;;;;;6.70;5.70;;;;;;;14.17;53.84;97803.64;1734534;82;21018;-68
2021/04/22 08:13:53;;;;;;;8.40;6.72;;;;;;;14.14;52.78;97800.23;1749937;80;20923;-67
2021/04/22 08:16:21;;;;;;;7.15;6.05;;;;;;;14.08;53.10;97802.86;1751981;81;21161;-66
2021/04/22 08:18:49;;;;;;;7.72;6.37;;;;;;;14.14;53.84;97797.53;1760362;80;21021;-66
2021/04/22 08:21:18;;;;;;;8.43;6.50;;;;;;;14.33;53.88;97792.09;1764747;81;21039;-66
2021/04/22 08:23:47;;;;;;;7.20;6.25;;;;;;;14.53;54.02;97796.59;1750523;81;20985;-67
2021/04/22 08:26:18;;;;;;;7.08;6.20;;;;;;;14.70;53.72;97794.63;1741621;81;21234;-68
2021/04/22 08:28:47;;;;;;;8.08;6.50;;;;;;;14.85;53.67;97799.52;1744419;81;21567;-66
2021/04/22 08:31:23;;;;;;;6.95;6.22;;;;;;;14.99;53.62;97794.71;1734598;82;20950;-66
2021/04/22 08:33:58;;;;;;;9.35;7.35;;;;;;;15.13;52.54;97791.80;1734703;82;20929;-65
2021/04/22 08:36:27;;;;;;;7.47;6.12;;;;;;;15.22;52.12;97790.39;1734492;82;21057;-65
2021/04/22 08:38:55;;;;;;;9.48;5.72;;;;;;;15.20;52.51;97792.63;1734438;82;21056;-65
2021/04/22 08:41:23;;;;;;;6.70;5.55;;;;;;;15.21;50.77;97796.92;1734593;82;21206;-65
2021/04/22 08:43:52;;;;;;;6.03;5.42;;;;;;;15.13;51.02;97789.65;1734641;82;20906;-66
2021/04/22 08:46:23;;;;;;;8.88;6.10;;;;;;;14.94;50.99;97787.34;1734375;82;21540;-65
2021/04/22 08:48:52;;;;;;;6.45;5.40;;;;;;;14.78;51.67;97788.98;1734662;82;21092;-64
2021/04/22 08:51:20;;;;;;;7.65;5.65;;;;;;;14.63;50.95;97786.80;1734643;82;20986;-65
2021/04/22 08:53:49;;;;;;;6.37;5.53;;;;;;;14.48;51.06;97788.13;1734669;82;21484;-64
2021/04/22 08:56:19;;;;;;;6.83;5.58;;;;;;;14.31;51.07;97784.09;1770343;79;21076;-64
2021/04/22 08:58:49;;;;;;;6.15;5.55;;;;;;;14.17;52.00;97791.52;1769265;81;21157;-67
2021/04/22 09:01:19;;;;;;;5.83;5.22;;;;;;;14.02;53.39;97791.98;1768963;80;21014;-68
2021/04/22 09:03:51;;;;;;;6.85;6.22;;;;;;;13.85;53.14;97796.04;1768855;81;21200;-66
2021/04/22 09:06:22;;;;;;;7.27;6.60;;;;;;;13.78;53.88;97797.06;1750843;81;21305;-65
2021/04/22 09:08:52;;;;;;;9.28;6.00;;;;;;;13.76;54.98;97794.67;1769355;81;21556;-66
2021/04/22 09:11:25;;;;;;;7.58;5.92;;;;;;;13.75;56.35;97789.61;1741534;81;21185;-64
2021/04/22 09:13:55;;;;;;;6.50;5.72;;;;;;;13.68;56.28;97796.23;1696747;84;21168;-66
2021/04/22 09:16:28;;;;;;;6.65;5.80;;;;;;;13.73;54.13;97788.02;1674596;85;21098;-65
2021/04/22 09:19:07;;;;;;;7.33;6.12;;;;;;;13.92;56.58;97782.33;1704539;82;22299;-65
2021/04/22 09:21:40;;;;;;;6.83;6.10;;;;;;;14.21;54.33;97783.83;1727497;82;21160;-64
2021/04/22 09:24:14;;;;;;;7.15;6.45;;;;;;;14.44;53.89;97770.98;1764921;81;21137;-66
2021/04/22 09:26:50;;;;;;;8.23;5.78;;;;;;;14.55;52.64;97772.80;1764861;79;20939;-65
2021/04/22 09:29:39;;;;;;;6.47;5.78;;;;;;;14.62;52.36;97773.90;1765017;81;21162;-65
2021/04/22 09:32:24;;;;;;;7.25;6.05;;;;;;;14.80;51.68;97780.81;1765044;81;21383;-65
2021/04/22 09:35:03;;;;;;;6.67;6.08;;;;;;;15.00;50.49;97769.89;1767015;81;21047;-67
2021/04/22 09:37:49;;;;;;;7.28;6.00;;;;;;;15.10;51.18;97772.20;1765375;81;21220;-67
2021/04/22 09:40:34;;;;;;;6.83;6.12;;;;;;;15.14;51.22;97772.36;1764704;81;21539;-67
2021/04/22 09:43:06;;;;;;;7.83;5.90;;;;;;;15.11;48.58;97779.74;1765267;81;21074;-64
2021/04/22 09:45:36;;;;;;;6.92;5.58;;;;;;;14.90;48.15;97779.67;1765044;81;21209;-64
2021/04/22 09:48:21;;;;;;;5.47;4.97;;;;;;;14.64;48.92;97787.84;1766515;79;21062;-66
2021/04/22 09:50:57;;;;;;;7.65;6.40;;;;;;;14.44;50.75;97822.19;1873092;76;22694;-66
2021/04/22 09:53:26;;;;;;;9.05;7.30;;;;;;;14.02;54.69;97847.98;1844343;77;21417;-66
2021/04/22 09:56:10;;;;;;;11.33;6.65;;;;;;;13.44;57.91;97847.01;1844411;77;21470;-64
2021/04/22 09:58:39;;;;;;;7.15;6.33;;;;;;;12.86;60.68;97867.88;1844309;77;20983;-66
2021/04/22 10:01:09;;;;;;;6.97;6.28;;;;;;;12.31;63.85;97853.39;1844301;77;20955;-66
2021/04/22 10:03:37;;;;;;;6.25;5.65;;;;;;;11.93;66.07;97850.77;1776941;77;20991;-64
2021/04/22 10:06:06;;;;;;;8.43;6.55;;;;;;;11.73;67.26;97851.19;1812415;77;20907;-65
2021/04/22 10:08:40;;;;;;;6.70;6.03;;;;;;;11.59;68.69;97849.03;1844250;77;21344;-65
2021/04/22 10:11:10;;;;;;;7.65;6.20;;;;;;;11.57;69.94;97848.55;1823374;77;20998;-66
2021/04/22 10:13:44;;;;;;;7.90;6.65;;;;;;;11.58;69.82;97835.39;1811142;79;20990;-63
2021/04/22 10:16:13;;;;;;;7.47;6.78;;;;;;;11.68;70.42;97823.15;1811151;79;20911;-67
2021/04/22 10:18:44;;;;;;;7.78;6.97;;;;;;;11.92;70.24;97823.67;1810910;79;21013;-68
2021/04/22 10:21:13;;;;;;;7.85;6.55;;;;;;;12.24;70.42;97814.08;1811140;79;22069;-64
2021/04/22 10:23:43;;;;;;;9.40;6.45;;;;;;;12.57;69.89;97817.85;1811319;79;20986;-67
2021/04/22 10:26:19;;;;;;;8.18;7.10;;;;;;;12.75;68.90;97819.53;1811233;79;21438;-66
2021/04/22 10:28:48;;;;;;;8.25;6.92;;;;;;;12.79;68.84;97819.95;1811403;79;21124;-68
2021/04/22 10:31:20;;;;;;;8.33;7.50;;;;;;;12.79;68.47;97821.83;1810880;79;20971;-66
2021/04/22 10:33:49;;;;;;;9.13;7.20;;;;;;;12.77;68.10;97816.78;1810916;79;21165;-65
2021/04/22 10:36:21;;;;;;;9.53;7.30;;;;;;;12.65;68.16;97823.27;1810984;79;20935;-65
2021/04/22 10:38:51;;;;;;;8.05;7.25;;;;;;;12.55;67.89;97826.23;1811069;79;20967;-63
2021/04/22 10:41:20;;;;;;;7.22;6.53;;;;;;;12.51;67.96;97821.75;1811121;79;20986;-67
2021/04/22 10:43:49;;;;;;;10.08;7.45;;;;;;;12.44;67.46;97816.01;1780203;79;20959;-66
2021/04/22 10:46:19;;;;;;;7.35;6.58;;;;;;;12.43;67.53;97814.44;1811096;78;21379;-65
2021/04/22 10:48:48;;;;;;;7.15;6.00;;;;;;;12.47;67.13;97819.44;1811094;79;21533;-66
2021/04/22 10:51:17;;;;;;;7.90;6.42;;;;;;;12.52;66.24;97809.37;1817681;79;21006;-64
2021/04/22 10:53:46;;;;;;;8.93;6.92;;;;;;;12.60;65.34;97806.50;1817364;79;20982;-64
2021/04/22 10:56:27;;;;;;;8.38;6.62;;;;;;;12.69;64.32;97820.23;1817921;77;21065;-65
2021/04/22 10:58:55;;;;;;;7.30;6.60;;;;;;;12.68;63.60;97805.73;1834224;76;21363;-65
2021/04/22 11:01:38;;;;;;;8.05;6.47;;;;;;;12.63;62.67;97804.52;1823666;77;21030;-66
2021/04/22 11:04:15;;;;;;;7.22;6.53;;;;;;;12.77;62.73;97802.00;1876662;76;22399;-64
2021/04/22 11:06:44;;;;;;;7.00;6.40;;;;;;;12.91;60.86;97792.49;1795681;79;21029;-65
2021/04/22 11:12:01;;;;;;;7.63;6.60;;;;;;;13.29;58.44;97784.20;1855674;76;27777;-64
2021/04/22 11:14:38;;;;;;;7.03;6.33;;;;;;;13.30;58.17;97783.12;1835482;76;21010;-65
2021/04/22 11:17:06;;;;;;;;;;;;;;;13.29;57.97;97816.48;1820688;77;21192;-63
2021/04/22 11:19:41;;;;;;;7.97;7.17;;;;;;;13.24;57.06;97803.17;1844184;77;20115;-66
2021/04/22 11:22:29;;;;;;;;;;;;;;;13.15;57.36;97796.98;1847167;77;20919;-66
2021/04/22 11:25:01;;;;;;;7.47;6.78;;;;;;;13.13;57.53;97800.53;1844455;77;20127;-66
2021/04/22 11:27:39;;;;;;;6.37;5.87;;;;;;;13.14;57.27;97796.75;1844323;77;21615;-63
2021/04/22 11:30:29;;;;;;;7.45;6.33;;;;;;;13.14;57.40;97801.33;1812560;76;21487;-65
2021/04/22 11:33:01;;;;;;;8.48;5.58;;;;;;;13.11;56.67;97798.71;1830845;77;21472;-66
2021/04/22 11:35:34;;;;;;;6.67;6.08;;;;;;;13.09;56.94;97808.19;1790720;79;26966;-64
2021/04/22 11:38:09;;;;;;;5.87;5.28;;;;;;;13.03;57.14;97807.49;1811240;79;20994;-64
2021/04/22 11:40:47;;;;;;;7.37;6.67;;;;;;;12.90;57.48;97818.60;1799339;77;21395;-67
2021/04/22 11:43:24;;;;;;;6.92;6.22;;;;;;;12.74;58.37;97820.65;1839119;77;21239;-66
2021/04/22 11:45:54;;;;;;;;;;;;;;;12.61;59.52;97825.53;1813862;79;21501;-63
2021/04/22 11:48:22;;;;;;;8.08;6.80;;;;;;;12.51;60.32;97830.60;1811263;79;20113;-64
2021/04/22 11:50:57;;;;;;;6.25;5.65;;;;;;;12.44;60.84;97818.69;1811030;79;20987;-63
2021/04/22 11:53:37;;;;;;;6.10;5.50;;;;;;;12.44;61.56;97818.16;1834711;77;21054;-65
2021/04/22 11:56:07;;;;;;;6.90;6.28;;;;;;;12.42;61.79;97811.50;1812895;77;21201;-64
2021/04/22 11:58:38;;;;;;;6.58;5.87;;;;;;;12.40;62.26;97806.44;1814311;76;20986;-64
2021/04/22 12:01:08;;;;;;;5.35;4.90;;;;;;;12.40;62.74;97789.52;1812882;76;21192;-64
2021/04/22 12:03:41;;;;;;;6.78;4.45;;;;;;;12.34;62.04;97788.30;1824698;77;21192;-64
2021/04/22 12:06:16;;;;;;;5.30;4.65;;;;;;;12.29;61.50;97788.42;1840967;77;21584;-64
2021/04/22 12:08:49;;;;;;;5.55;4.58;;;;;;;12.29;61.50;97785.73;1837350;77;21383;-66
2021/04/22 12:11:22;;;;;;;5.10;4.60;;;;;;;12.52;60.82;97779.81;1829172;77;21185;-65
2021/04/22 12:13:51;;;;;;;5.67;4.53;;;;;;;12.91;60.74;97779.05;1841407;77;21592;-64
2021/04/22 12:16:25;;;;;;;4.72;4.22;;;;;;;13.34;59.58;97750.45;1774487;80;20948;-65
2021/04/22 12:18:54;;;;;;;4.20;3.80;;;;;;;13.66;58.96;97747.86;1771873;80;21470;-64
2021/04/22 12:21:24;;;;;;;4.55;4.15;;;;;;;14.02;57.60;97752.94;1786079;80;21370;-67
2021/04/22 12:23:55;;;;;;;4.60;3.35;;;;;;;14.38;55.43;97745.33;1784775;80;20991;-65
2021/04/22 12:26:28;;;;;;;5.72;4.75;;;;;;;14.57;54.72;97760.59;1759295;80;21030;-64
2021/04/22 12:29:07;;;;;;;5.00;4.30;;;;;;;14.84;52.19;97762.88;1774734;80;21190;-66
2021/04/22 12:31:47;;;;;;;5.40;4.40;;;;;;;15.10;51.69;97749.86;1774096;80;21553;-65
2021/04/22 12:34:22;;;;;;;2.75;2.50;;;;;;;15.39;50.55;97740.39;1774392;80;21369;-64
2021/04/22 12:37:12;;;;;;;2.72;2.40;;;;;;;15.55;48.87;97735.48;1773827;80;21581;-64
2021/04/22 12:39:52;;;;;;;2.12;1.92;;;;;;;15.44;50.04;97740.20;1765653;79;21183;-66
2021/04/22 12:42:27;;;;;;;4.55;1.98;;;;;;;15.31;49.22;97739.91;1753466;81;21183;-64
2021/04/22 12:45:03;;;;;;;2.17;1.87;;;;;;;15.05;49.66;97750.25;1769690;80;21081;-66
2021/04/22 12:47:51;;;;;;;2.00;1.82;;;;;;;14.89;50.26;97740.33;1786947;80;21209;-65
2021/04/22 12:50:31;;;;;;;1.50;1.40;;;;;;;14.75;50.17;97735.70;1776679;80;21191;-67
2021/04/22 12:53:17;;;;;;;2.40;1.85;;;;;;;14.64;50.04;97729.89;1787421;80;21524;-64
2021/04/22 12:55:54;;;;;;;2.40;1.72;;;;;;;14.54;50.39;97746.95;1787437;80;20985;-65
2021/04/22 12:58:33;;;;;;;2.58;1.70;;;;;;;14.37;50.56;97751.82;1787349;80;20942;-65
2021/04/22 13:01:09;;;;;;;2.52;1.90;;;;;;;14.14;51.32;97747.71;1787341;80;21440;-65
2021/04/22 13:03:39;;;;;;;2.40;2.00;;;;;;;13.89;51.92;97751.22;1787348;80;20962;-63
2021/04/22 13:06:11;;;;;;;2.62;1.80;;;;;;;13.65;52.68;97744.41;1787302;80;20930;-64
2021/04/22 13:08:45;;;;;;;3.37;1.75;;;;;;;13.52;53.42;97753.39;1782257;79;20970;-66
2021/04/22 13:11:17;;;;;;;2.12;1.80;;;;;;;13.42;53.85;97746.19;1780524;80;21583;-67
2021/04/22 13:13:58;;;;;;;2.17;1.70;;;;;;;13.30;53.67;97749.49;1781577;80;21006;-64
2021/04/22 13:16:30;;;;;;;2.00;1.67;;;;;;;13.15;54.07;97757.98;1782288;80;20973;-66
2021/04/22 13:19:04;;;;;;;2.80;2.08;;;;;;;13.01;54.66;97771.52;1821356;78;20949;-67
2021/04/22 13:21:36;;;;;;;2.10;1.70;;;;;;;12.88;55.06;97769.70;1821566;78;21499;-65
